Time;durP1;ratioP1;P1;durP2;ratioP2;P2;SDS_P1;SDS_P2;PMS_P1;PMS_P2;Temp;Humidity;BMP_temperature;BMP_pressure;BME280_temperature;BME280_humidity;BME280_pressure;Samples;Min_cycle;Max_cycle;Signal;HPM_P1;HPM_P2
2023/12/31 00:01:14;;;;;;;116.50;58.00;;;;;;;0.39;89.77;100257.22;129832;1260;114872;-69
2023/12/31 00:04:32;;;;;;;106.30;50.20;;;;;;;0.42;89.79;100256.47;130095;1277;128848;-67
2023/12/31 00:07:38;;;;;;;102.60;50.50;;;;;;;0.44;89.86;100259.44;130118;1260;114796;-70
2023/12/31 00:10:40;;;;;;;110.80;50.80;;;;;;;0.45;89.85;100254.52;129676;1254;114811;-69
2023/12/31 00:13:43;;;;;;;111.00;57.20;;;;;;;0.47;89.86;100255.57;130206;1254;114783;-72
2023/12/31 00:16:45;;;;;;;119.40;60.20;;;;;;;0.49;89.66;100249.92;130286;1254;114709;-72
2023/12/31 00:19:48;;;;;;;117.50;60.30;;;;;;;0.51;89.79;100244.45;130121;1255;116010;-72
2023/12/31 00:22:50;;;;;;;116.70;59.30;;;;;;;0.51;89.64;100241.48;130262;1260;114798;-69
2023/12/31 00:25:52;;;;;;;109.70;50.70;;;;;;;0.50;89.46;100242.17;130168;1260;114760;-69
2023/12/31 00:28:55;;;;;;;104.70;50.80;;;;;;;0.49;89.53;100237.98;130020;1260;114797;-67
2023/12/31 00:31:58;;;;;;;106.50;55.60;;;;;;;0.44;89.22;100234.67;129867;1254;115113;-71
2023/12/31 00:35:01;;;;;;;102.30;54.00;;;;;;;0.42;89.22;100235.39;130159;1261;114774;-67
2023/12/31 00:38:03;;;;;;;111.30;56.90;;;;;;;0.39;89.28;100231.55;130232;1270;114817;-68
2023/12/31 00:41:05;;;;;;;101.80;48.90;;;;;;;0.36;89.22;100228.08;130009;1254;115706;-67
2023/12/31 00:44:08;;;;;;;108.00;48.40;;;;;;;0.32;89.13;100227.06;130278;1277;128926;-67
2023/12/31 00:47:10;;;;;;;105.60;49.70;;;;;;;0.31;89.43;100226.71;130268;1277;114923;-69
2023/12/31 00:50:13;;;;;;;104.60;52.40;;;;;;;0.28;89.34;100226.91;130148;1268;114744;-66
2023/12/31 00:53:15;;;;;;;103.40;51.00;;;;;;;0.26;89.22;100229.39;130056;1278;114792;-67
2023/12/31 00:56:17;;;;;;;116.70;54.10;;;;;;;0.22;89.18;100227.67;130122;1256;114780;-69
2023/12/31 00:59:19;;;;;;;107.90;51.40;;;;;;;0.19;89.10;100227.34;130071;1258;114725;-70
2023/12/31 01:02:22;;;;;;;105.70;51.20;;;;;;;0.17;88.96;100225.27;129990;1260;114812;-69
2023/12/31 01:05:24;;;;;;;115.50;55.00;;;;;;;0.16;89.17;100224.04;130123;1278;128538;-68
2023/12/31 01:08:26;;;;;;;121.50;57.70;;;;;;;0.19;89.65;100223.30;130119;1278;115262;-68
2023/12/31 01:11:28;;;;;;;108.00;52.20;;;;;;;0.24;90.03;100223.97;130215;1255;115168;-67
2023/12/31 01:14:30;;;;;;;101.10;50.50;;;;;;;0.26;90.02;100223.06;129802;1261;114817;-69
2023/12/31 01:17:32;;;;;;;102.90;49.10;;;;;;;0.29;89.97;100221.48;130220;1260;115389;-70
2023/12/31 01:20:34;;;;;;;98.00;51.90;;;;;;;0.32;90.05;100219.86;130137;1260;114715;-68
2023/12/31 01:23:36;;;;;;;102.30;48.70;;;;;;;0.35;90.08;100219.12;130147;1277;114705;-67
2023/12/31 01:26:39;;;;;;;96.10;51.00;;;;;;;0.39;90.12;100218.39;129954;1260;114756;-69
2023/12/31 01:29:42;;;;;;;90.90;46.20;;;;;;;0.43;90.23;100218.88;129636;1263;114789;-68
2023/12/31 01:32:44;;;;;;;96.00;51.00;;;;;;;0.46;90.29;100218.84;130286;1254;115155;-67
2023/12/31 01:35:46;;;;;;;94.30;45.10;;;;;;;0.49;90.13;100223.23;130279;1261;114744;-71
2023/12/31 01:38:49;;;;;;;87.60;43.30;;;;;;;0.48;90.11;100220.23;130271;1265;114799;-71
2023/12/31 01:41:51;;;;;;;80.70;41.40;;;;;;;0.48;89.94;100216.03;130173;1254;115164;-69
2023/12/31 01:44:53;;;;;;;86.60;42.60;;;;;;;0.48;90.24;100217.07;130183;1260;114790;-70
2023/12/31 01:47:55;;;;;;;86.70;43.10;;;;;;;0.46;90.10;100217.10;130103;1260;128742;-68
2023/12/31 01:50:57;;;;;;;85.00;41.40;;;;;;;0.43;89.68;100215.02;130175;1259;114728;-68
2023/12/31 01:54:02;;;;;;;86.10;44.60;;;;;;;0.39;89.66;100216.46;130115;1260;114734;-69
2023/12/31 01:57:04;;;;;;;85.70;43.10;;;;;;;0.33;89.36;100216.34;129935;1260;114707;-68
2023/12/31 02:00:07;;;;;;;79.20;45.30;;;;;;;0.28;89.41;100216.38;130177;1259;114793;-69
2023/12/31 02:03:10;;;;;;;80.70;39.30;;;;;;;0.23;89.13;100215.90;130191;1259;114740;-67
2023/12/31 02:06:14;;;;;;;78.80;38.20;;;;;;;0.18;89.28;100220.33;129622;1277;128170;-70
2023/12/31 02:09:16;;;;;;;81.30;43.70;;;;;;;0.12;89.11;100216.33;130364;1259;114754;-70
2023/12/31 02:12:19;;;;;;;86.30;42.40;;;;;;;0.06;89.12;100214.80;130230;1257;115198;-70
2023/12/31 02:15:34;;;;;;;80.60;39.80;;;;;;;0.01;89.19;100218.34;130144;1259;114716;-67
2023/12/31 02:18:37;;;;;;;75.60;39.80;;;;;;;-0.04;89.08;100220.84;130000;1259;115480;-70
2023/12/31 02:21:40;;;;;;;74.00;38.00;;;;;;;-0.07;89.17;100220.16;129806;1259;115372;-69
2023/12/31 02:24:48;;;;;;;79.20;41.50;;;;;;;-0.09;89.29;100216.15;129752;1262;114728;-70
2023/12/31 02:27:53;;;;;;;75.60;39.20;;;;;;;-0.12;89.35;100213.71;130324;1277;114762;-69
2023/12/31 02:30:55;;;;;;;70.30;36.40;;;;;;;-0.15;89.18;100212.48;130160;1254;114629;-67
2023/12/31 02:33:57;;;;;;;75.20;40.80;;;;;;;-0.19;89.20;100212.52;130329;1269;114696;-69
2023/12/31 02:36:59;;;;;;;66.50;36.80;;;;;;;-0.22;89.37;100216.57;130296;1257;114817;-67
2023/12/31 02:40:02;;;;;;;74.40;37.70;;;;;;;-0.25;89.32;100211.52;130291;1258;114757;-68
2023/12/31 02:43:05;;;;;;;81.70;43.20;;;;;;;-0.28;89.63;100212.59;129774;1260;114854;-69
2023/12/31 02:46:07;;;;;;;76.00;39.30;;;;;;;-0.29;89.65;100209.60;130335;1259;115353;-67
2023/12/31 02:49:11;;;;;;;73.20;38.10;;;;;;;-0.30;89.97;100205.92;129969;1255;115177;-67
2023/12/31 02:52:15;;;;;;;72.00;35.50;;;;;;;-0.30;90.12;100203.64;129914;1254;115187;-67
2023/12/31 02:55:17;;;;;;;67.00;37.90;;;;;;;-0.30;90.09;100198.73;130241;1254;114839;-66
2023/12/31 02:58:19;;;;;;;71.20;36.90;;;;;;;-0.31;90.29;100205.58;130178;1256;114747;-67
2023/12/31 03:01:21;;;;;;;65.50;33.60;;;;;;;-0.31;90.37;100201.73;129915;1260;115194;-66
2023/12/31 03:04:24;;;;;;;58.40;33.20;;;;;;;-0.31;90.39;100202.08;129921;1277;114884;-71
2023/12/31 03:07:26;;;;;;;69.60;36.20;;;;;;;-0.32;90.31;100199.45;130019;1259;114825;-65
2023/12/31 03:10:29;;;;;;;69.70;34.50;;;;;;;-0.33;90.30;100197.17;130029;1258;114737;-67
2023/12/31 03:13:32;;;;;;;61.20;35.00;;;;;;;-0.36;90.22;100196.85;130163;1259;114764;-71
2023/12/31 03:16:34;;;;;;;64.20;31.40;;;;;;;-0.39;90.05;100197.91;130244;1260;115123;-70
2023/12/31 03:19:36;;;;;;;56.60;31.00;;;;;;;-0.42;90.12;100194.43;129752;1264;127675;-66
2023/12/31 03:22:38;;;;;;;57.90;32.30;;;;;;;-0.45;90.08;100193.75;130039;1270;114755;-69
2023/12/31 03:25:40;;;;;;;61.70;34.70;;;;;;;-0.49;90.13;100193.06;130012;1254;114837;-66
2023/12/31 03:28:43;;;;;;;61.60;33.40;;;;;;;-0.50;90.26;100195.53;130281;1254;114696;-70
2023/12/31 03:31:45;;;;;;;61.50;31.70;;;;;;;-0.51;90.27;100196.59;130274;1259;114719;-72
2023/12/31 03:34:47;;;;;;;55.90;32.50;;;;;;;-0.54;90.04;100197.84;130140;1254;114792;-71
2023/12/31 03:37:49;;;;;;;60.10;32.30;;;;;;;-0.57;90.02;100197.15;130257;1254;114804;-71
2023/12/31 03:40:51;;;;;;;60.70;32.30;;;;;;;-0.60;89.79;100194.71;129805;1262;129420;-66
2023/12/31 03:43:53;;;;;;;56.20;31.90;;;;;;;-0.62;89.89;100191.73;129953;1260;114827;-71
2023/12/31 03:46:56;;;;;;;65.40;31.20;;;;;;;-0.65;90.00;100190.87;130243;1260;115076;-69
2023/12/31 03:50:01;;;;;;;56.80;32.50;;;;;;;-0.68;89.82;100195.98;130127;1256;114704;-71
2023/12/31 03:53:03;;;;;;;65.80;34.70;;;;;;;-0.70;89.87;100195.81;130128;1259;115503;-69
2023/12/31 03:56:05;;;;;;;54.60;29.20;;;;;;;-0.72;89.73;100193.02;130108;1259;114677;-71
2023/12/31 03:59:08;;;;;;;54.30;29.20;;;;;;;-0.74;89.75;100189.86;129933;1259;114955;-69
2023/12/31 04:02:10;;;;;;;57.30;28.70;;;;;;;-0.76;89.96;100189.01;130170;1278;127443;-69
2023/12/31 04:05:12;;;;;;;55.70;30.00;;;;;;;-0.78;90.08;100189.54;130064;1260;114719;-69
2023/12/31 04:08:14;;;;;;;51.30;29.70;;;;;;;-0.79;89.96;100183.76;130263;1259;115401;-71
2023/12/31 04:11:16;;;;;;;55.40;28.70;;;;;;;-0.80;90.36;100181.66;129801;1256;114817;-70
2023/12/31 04:14:18;;;;;;;60.80;30.30;;;;;;;-0.79;90.41;100176.91;130097;1259;115049;-68
2023/12/31 04:17:20;;;;;;;55.20;30.40;;;;;;;-0.78;90.96;100174.81;130155;1259;114992;-70
2023/12/31 04:20:22;;;;;;;55.30;30.10;;;;;;;-0.78;90.56;100171.65;129871;1257;114823;-71
2023/12/31 04:23:24;;;;;;;55.30;32.40;;;;;;;-0.79;90.46;100167.64;130128;1277;114840;-71
2023/12/31 04:26:26;;;;;;;55.30;31.00;;;;;;;-0.80;90.30;100163.77;130321;1259;114738;-73
2023/12/31 04:29:31;;;;;;;51.90;27.30;;;;;;;-0.82;89.98;100163.60;130231;1259;114852;-69
2023/12/31 04:32:34;;;;;;;49.00;28.90;;;;;;;-0.85;90.11;100166.26;129669;1257;114888;-70
2023/12/31 04:35:37;;;;;;;37.50;20.40;;;;;;;-0.85;90.46;100168.54;130291;1254;114730;-71
2023/12/31 04:38:39;;;;;;;33.40;17.60;;;;;;;-0.86;90.56;100163.98;130252;1258;114777;-72
2023/12/31 04:41:41;;;;;;;34.60;19.30;;;;;;;-0.83;91.07;100161.52;130186;1254;115258;-68
2023/12/31 04:44:44;;;;;;;31.10;19.00;;;;;;;-0.82;91.37;100153.26;130196;1257;128636;-73
2023/12/31 04:47:46;;;;;;;32.40;18.50;;;;;;;-0.79;91.50;100150.45;129971;1260;115386;-72
2023/12/31 04:50:49;;;;;;;28.90;16.80;;;;;;;-0.76;91.50;100146.75;130168;1259;114845;-73
2023/12/31 04:53:53;;;;;;;27.80;15.10;;;;;;;-0.75;91.41;100141.48;130198;1259;114649;-72
2023/12/31 04:56:55;;;;;;;29.50;17.80;;;;;;;-0.71;92.00;100141.45;130140;1259;114726;-73
2023/12/31 04:59:57;;;;;;;24.70;15.20;;;;;;;-0.66;91.85;100138.97;130231;1259;114823;-68
2023/12/31 05:02:59;;;;;;;26.60;14.90;;;;;;;-0.61;92.37;100137.02;129833;1264;127804;-71
2023/12/31 05:06:03;;;;;;;28.60;16.70;;;;;;;-0.55;92.89;100142.95;130176;1259;115285;-69
2023/12/31 05:09:08;;;;;;;28.40;17.10;;;;;;;-0.53;92.20;100140.98;130198;1259;114687;-70
2023/12/31 05:12:10;;;;;;;28.50;16.60;;;;;;;-0.54;92.06;100137.48;129974;1258;114775;-70
2023/12/31 05:15:12;;;;;;;32.70;19.10;;;;;;;-0.55;91.76;100140.65;130071;1259;114991;-70
2023/12/31 05:18:14;;;;;;;33.00;18.10;;;;;;;-0.56;91.77;100137.33;130197;1256;114794;-68
2023/12/31 05:21:17;;;;;;;33.90;23.20;;;;;;;-0.56;91.73;100141.36;130018;1256;127708;-72
2023/12/31 05:24:19;;;;;;;36.40;24.60;;;;;;;-0.56;91.92;100133.98;130230;1259;114723;-70
2023/12/31 05:27:21;;;;;;;34.70;20.10;;;;;;;-0.57;91.76;100135.05;130294;1259;114768;-70
2023/12/31 05:30:23;;;;;;;36.50;23.70;;;;;;;-0.58;92.00;100133.66;130063;1259;114754;-68
2023/12/31 05:33:25;;;;;;;33.60;22.00;;;;;;;-0.58;92.16;100128.92;130286;1259;114797;-73
2023/12/31 05:36:28;;;;;;;33.40;19.60;;;;;;;-0.59;91.77;100126.48;130223;1259;114730;-72
2023/12/31 05:39:30;;;;;;;35.50;20.50;;;;;;;-0.61;91.93;100122.98;130309;1256;114760;-73
2023/12/31 05:42:32;;;;;;;35.10;21.40;;;;;;;-0.62;91.82;100119.65;130333;1259;126580;-72
2023/12/31 05:45:34;;;;;;;31.80;17.30;;;;;;;-0.65;91.79;100116.69;130122;1258;114693;-71
2023/12/31 05:48:38;;;;;;;31.70;18.80;;;;;;;-0.67;91.89;100114.60;130217;1254;114818;-72
2023/12/31 05:51:40;;;;;;;37.80;22.00;;;;;;;-0.69;91.70;100113.91;130297;1254;114739;-71
2023/12/31 05:54:42;;;;;;;33.50;21.80;;;;;;;-0.70;91.99;100107.79;130249;1261;114876;-75
2023/12/31 05:57:44;;;;;;;34.80;21.00;;;;;;;-0.71;91.73;100107.25;130255;1259;114663;-71
2023/12/31 06:00:47;;;;;;;31.20;18.50;;;;;;;-0.73;91.61;100102.52;130185;1267;114738;-71
2023/12/31 06:03:49;;;;;;;34.30;19.50;;;;;;;-0.74;91.64;100105.53;130234;1273;114825;-73
2023/12/31 06:06:51;;;;;;;31.80;19.60;;;;;;;-0.75;91.63;100104.66;130342;1277;114671;-72
2023/12/31 06:09:53;;;;;;;33.00;17.30;;;;;;;-0.77;91.90;100096.43;130284;1258;114738;-71
2023/12/31 06:12:55;;;;;;;29.00;14.80;;;;;;;-0.76;92.23;100088.71;130270;1254;115007;-72
2023/12/31 06:15:58;;;;;;;24.80;13.60;;;;;;;-0.74;92.23;100081.84;130202;1258;115012;-73
2023/12/31 06:19:00;;;;;;;21.00;13.10;;;;;;;-0.71;92.74;100079.02;129869;1254;114901;-69
2023/12/31 06:22:02;;;;;;;22.60;12.10;;;;;;;-0.66;93.25;100074.61;130088;1259;114739;-71
2023/12/31 06:25:04;;;;;;;22.40;12.90;;;;;;;-0.59;93.56;100061.59;130235;1259;114732;-72
2023/12/31 06:28:07;;;;;;;17.70;10.80;;;;;;;-0.53;93.77;100054.51;129921;1277;114808;-72
2023/12/31 06:31:09;;;;;;;25.20;13.70;;;;;;;-0.45;94.18;100047.59;130145;1254;115479;-72
2023/12/31 06:34:12;;;;;;;21.80;12.80;;;;;;;-0.39;94.33;100039.14;130199;1259;114786;-72
2023/12/31 06:37:14;;;;;;;22.40;10.80;;;;;;;-0.34;94.35;100035.93;130177;1261;114741;-71
2023/12/31 06:40:17;;;;;;;10.20;5.60;;;;;;;-0.28;94.46;100035.34;130148;1259;115116;-73
2023/12/31 06:43:19;;;;;;;24.00;14.10;;;;;;;-0.22;94.59;100028.44;130131;1260;114738;-73
2023/12/31 06:46:21;;;;;;;22.60;11.80;;;;;;;-0.17;94.57;100028.92;130238;1259;114821;-72
2023/12/31 06:49:23;;;;;;;24.30;13.40;;;;;;;-0.13;94.72;100024.14;130245;1257;114719;-71
2023/12/31 06:52:25;;;;;;;19.50;10.40;;;;;;;-0.08;94.52;100027.60;130211;1259;115292;-72
2023/12/31 06:55:27;;;;;;;23.10;12.80;;;;;;;-0.04;94.86;100024.41;130316;1259;114731;-72
2023/12/31 06:58:29;;;;;;;28.20;14.60;;;;;;;0.00;94.63;100030.67;130026;1255;114782;-73
2023/12/31 07:01:31;;;;;;;25.00;13.70;;;;;;;0.03;94.61;100028.89;130155;1259;114715;-73
2023/12/31 07:04:33;;;;;;;23.40;13.80;;;;;;;0.06;94.34;100027.27;130231;1257;114786;-72
2023/12/31 07:07:36;;;;;;;27.30;15.50;;;;;;;0.09;94.42;100025.67;130189;1259;129262;-72
2023/12/31 07:10:38;;;;;;;39.30;17.10;;;;;;;0.12;94.48;100025.98;130156;1277;114719;-73
2023/12/31 07:13:40;;;;;;;33.20;16.40;;;;;;;0.13;94.57;100022.80;130301;1271;115407;-73
2023/12/31 07:16:42;;;;;;;37.70;17.00;;;;;;;0.16;94.21;100021.02;129859;1254;114916;-72
2023/12/31 07:19:44;;;;;;;32.20;15.90;;;;;;;0.20;94.48;100017.29;130305;1258;114834;-75
2023/12/31 07:22:53;;;;;;;25.80;13.90;;;;;;;0.24;94.32;100020.77;129922;1277;114722;-70
2023/12/31 07:25:55;;;;;;;30.70;16.60;;;;;;;0.28;94.63;100020.00;129837;1263;128209;-68
2023/12/31 07:28:57;;;;;;;27.80;15.10;;;;;;;0.32;94.45;100017.86;130151;1256;114783;-68
2023/12/31 07:32:00;;;;;;;24.60;14.10;;;;;;;0.35;94.73;100010.44;130093;1259;115488;-67
2023/12/31 07:35:02;;;;;;;28.10;15.40;;;;;;;0.40;94.56;100007.73;129962;1260;114812;-68
2023/12/31 07:38:10;;;;;;;26.30;14.20;;;;;;;0.45;94.83;100006.09;130199;1259;114771;-68
2023/12/31 07:41:13;;;;;;;21.40;13.80;;;;;;;0.51;94.84;100000.92;129663;1254;114709;-67
2023/12/31 07:44:18;;;;;;;27.60;14.80;;;;;;;0.57;95.04;100002.06;130221;1260;114786;-68
2023/12/31 07:47:20;;;;;;;24.60;14.60;;;;;;;0.64;95.02;99996.89;130228;1277;115385;-70
2023/12/31 07:50:22;;;;;;;30.30;17.20;;;;;;;0.71;94.40;99990.98;130177;1258;116436;-69
2023/12/31 07:53:24;;;;;;;30.50;18.40;;;;;;;0.78;94.86;99985.25;130281;1256;115331;-67
2023/12/31 07:56:26;;;;;;;28.70;18.80;;;;;;;0.86;94.53;99987.60;130089;1259;114767;-72
2023/12/31 07:59:30;;;;;;;29.90;16.30;;;;;;;0.94;94.73;99983.98;129721;1277;114910;-68
2023/12/31 08:02:33;;;;;;;31.60;17.80;;;;;;;1.02;94.74;99980.50;130321;1259;128150;-69
2023/12/31 08:05:35;;;;;;;30.50;15.20;;;;;;;1.11;94.91;99979.67;130149;1272;114626;-68
2023/12/31 08:08:39;;;;;;;31.00;17.90;;;;;;;1.18;94.80;99983.95;130209;1254;114802;-70
2023/12/31 08:11:41;;;;;;;27.00;17.40;;;;;;;1.27;94.85;99979.59;130206;1258;115190;-70
2023/12/31 08:14:44;;;;;;;30.40;18.70;;;;;;;1.36;94.74;99978.73;130064;1254;114818;-69
2023/12/31 08:17:46;;;;;;;31.70;16.10;;;;;;;1.45;94.96;99978.58;130126;1254;114708;-71
2023/12/31 08:20:49;;;;;;;28.10;17.70;;;;;;;1.56;94.82;99981.20;130204;1258;114751;-73
2023/12/31 08:23:51;;;;;;;30.60;17.90;;;;;;;1.65;94.79;99981.91;130134;1256;114821;-72
2023/12/31 08:26:53;;;;;;;26.00;15.10;;;;;;;1.76;94.86;99979.25;130304;1258;114757;-74
2023/12/31 08:29:55;;;;;;;25.80;14.80;;;;;;;1.86;94.93;99974.50;130176;1277;115297;-72
2023/12/31 08:32:59;;;;;;;27.10;15.10;;;;;;;1.95;94.92;99973.27;130259;1259;114853;-72
2023/12/31 08:36:01;;;;;;;25.60;15.10;;;;;;;2.03;94.77;99973.83;130100;1259;114844;-73
2023/12/31 08:39:03;;;;;;;32.40;16.50;;;;;;;2.10;94.59;99963.98;129865;1259;114738;-71
2023/12/31 08:42:08;;;;;;;31.10;17.70;;;;;;;2.19;94.65;99963.98;130128;1258;114788;-71
2023/12/31 08:45:11;;;;;;;17.70;10.00;;;;;;;2.30;94.68;99964.29;129957;1262;114780;-73
2023/12/31 08:48:13;;;;;;;21.60;13.80;;;;;;;2.38;94.57;99965.34;130169;1256;114677;-71
2023/12/31 08:51:22;;;;;;;22.40;12.40;;;;;;;2.49;94.81;99955.23;130172;1259;114787;-73
2023/12/31 08:54:27;;;;;;;23.60;14.30;;;;;;;2.62;94.89;99960.26;130066;1278;114984;-72
2023/12/31 08:57:29;;;;;;;19.10;11.80;;;;;;;2.73;94.80;99962.46;130190;1259;114740;-71
2023/12/31 09:00:31;;;;;;;21.40;13.00;;;;;;;2.83;94.59;99961.35;130088;1259;114711;-73
2023/12/31 09:03:34;;;;;;;21.70;14.10;;;;;;;2.93;94.46;99957.41;130092;1256;114806;-68
2023/12/31 09:06:37;;;;;;;21.70;12.10;;;;;;;3.03;94.49;99954.53;130184;1259;114808;-73
2023/12/31 09:09:39;;;;;;;18.90;12.10;;;;;;;3.14;94.57;99955.86;130273;1257;114739;-70
2023/12/31 09:12:42;;;;;;;11.10;6.00;;;;;;;3.24;94.52;99955.80;130109;1257;115485;-70
2023/12/31 09:15:45;;;;;;;14.20;8.10;;;;;;;3.33;94.21;99949.92;130234;1259;114807;-67
2023/12/31 09:18:47;;;;;;;18.40;10.40;;;;;;;3.39;93.77;99942.52;129826;1255;128111;-69
2023/12/31 09:21:49;;;;;;;16.30;9.30;;;;;;;3.44;93.60;99941.34;130117;1258;114703;-72
2023/12/31 09:24:52;;;;;;;19.50;11.30;;;;;;;3.52;93.68;99936.71;130281;1256;114740;-71
2023/12/31 09:27:55;;;;;;;15.50;9.60;;;;;;;3.61;93.71;99931.00;129852;1262;114801;-71
2023/12/31 09:31:01;;;;;;;17.70;10.20;;;;;;;3.72;93.47;99922.95;130232;1254;114724;-72
2023/12/31 09:34:03;;;;;;;20.50;11.30;;;;;;;3.81;93.38;99919.52;130221;1257;114767;-74
2023/12/31 09:37:06;;;;;;;17.30;10.00;;;;;;;3.89;93.21;99911.33;130272;1269;115084;-72
2023/12/31 09:40:09;;;;;;;24.20;12.10;;;;;;;4.00;93.30;99906.26;129874;1256;115406;-70
2023/12/31 09:43:15;;;;;;;19.00;11.30;;;;;;;4.09;93.20;99900.34;130356;1259;115250;-74
2023/12/31 09:46:23;;;;;;;20.10;11.40;;;;;;;4.15;92.69;99900.18;130381;1259;114833;-71
2023/12/31 09:49:25;;;;;;;17.50;10.80;;;;;;;4.18;92.74;99893.73;130225;1254;114741;-75
2023/12/31 09:52:29;;;;;;;19.70;11.20;;;;;;;4.22;92.55;99886.70;130217;1258;114732;-73
2023/12/31 09:55:31;;;;;;;14.70;8.00;;;;;;;4.26;92.74;99887.81;130319;1259;114815;-73
2023/12/31 09:58:35;;;;;;;14.70;9.40;;;;;;;4.28;92.08;99885.46;129981;1260;114807;-74
2023/12/31 10:01:39;;;;;;;17.90;10.90;;;;;;;4.31;92.18;99875.82;130268;1256;115193;-73
2023/12/31 10:04:41;;;;;;;23.00;12.60;;;;;;;4.36;92.09;99871.81;129594;1269;114768;-74
2023/12/31 10:07:44;;;;;;;20.90;12.00;;;;;;;4.38;91.86;99866.79;130244;1256;114714;-76
2023/12/31 10:10:48;;;;;;;16.40;9.80;;;;;;;4.42;92.07;99859.05;130267;1257;114722;-79
2023/12/31 10:13:51;;;;;;;14.90;7.70;;;;;;;4.44;91.86;99852.26;130198;1259;115162;-74
2023/12/31 10:16:53;;;;;;;20.20;11.40;;;;;;;4.47;91.86;99855.71;130211;1257;115259;-75
2023/12/31 10:19:59;;;;;;;19.70;10.20;;;;;;;4.50;91.76;99855.08;130216;1259;114777;-76
2023/12/31 10:23:02;;;;;;;19.30;11.60;;;;;;;4.54;91.76;99857.27;130042;1257;114700;-74
2023/12/31 10:26:10;;;;;;;21.80;14.40;;;;;;;4.57;91.73;99854.67;129976;1256;114869;-75
2023/12/31 10:29:13;;;;;;;18.80;10.60;;;;;;;4.62;91.68;99850.83;130146;1262;114838;-73
2023/12/31 10:32:25;;;;;;;21.90;12.40;;;;;;;4.63;91.48;99843.17;130288;1259;114655;-74
2023/12/31 10:35:27;;;;;;;22.20;12.90;;;;;;;4.66;91.40;99831.23;130338;1254;114724;-75
2023/12/31 10:38:47;;;;;;;18.70;12.10;;;;;;;4.70;91.48;99820.85;129753;1273;114760;-71
2023/12/31 10:41:50;;;;;;;10.80;6.40;;;;;;;4.76;91.36;99814.48;130211;1259;128694;-69
2023/12/31 10:44:56;;;;;;;12.70;7.30;;;;;;;4.80;90.99;99810.82;129977;1276;114788;-69
2023/12/31 10:48:01;;;;;;;13.40;7.90;;;;;;;4.80;90.76;99809.35;129955;1259;114745;-71
2023/12/31 10:51:08;;;;;;;15.10;10.10;;;;;;;4.82;90.82;99807.34;130308;1254;114803;-71
2023/12/31 10:54:16;;;;;;;9.70;5.90;;;;;;;4.85;90.77;99799.84;130127;1260;114790;-71
2023/12/31 10:57:21;;;;;;;19.50;10.00;;;;;;;4.87;90.47;99795.69;130210;1259;129815;-70
2023/12/31 11:00:24;;;;;;;14.60;9.00;;;;;;;4.88;90.15;99789.80;129736;1261;114674;-70
2023/12/31 11:03:28;;;;;;;18.50;9.60;;;;;;;4.88;89.99;99785.90;130255;1259;114719;-72
2023/12/31 11:06:32;;;;;;;20.80;11.60;;;;;;;4.91;90.06;99779.98;130037;1277;115375;-70
2023/12/31 11:09:34;;;;;;;21.00;11.10;;;;;;;4.94;90.05;99779.00;130154;1259;115105;-72
2023/12/31 11:12:37;;;;;;;14.00;8.90;;;;;;;4.96;89.79;99773.05;129810;1259;237233;-69
2023/12/31 11:15:40;;;;;;;11.60;6.90;;;;;;;5.00;89.86;99764.46;130069;1261;114804;-73
2023/12/31 11:18:45;;;;;;;18.20;10.80;;;;;;;5.05;89.89;99756.66;130033;1257;114793;-71
2023/12/31 11:22:15;;;;;;;16.50;8.70;;;;;;;5.12;90.15;99748.80;130025;1260;114800;-70
2023/12/31 11:25:21;;;;;;;10.10;4.90;;;;;;;5.19;89.69;99741.48;130151;1259;114733;-69
2023/12/31 11:28:27;;;;;;;13.50;8.60;;;;;;;5.22;89.43;99727.73;130056;1262;127948;-71
2023/12/31 11:31:30;;;;;;;11.50;6.80;;;;;;;5.26;89.22;99725.27;130237;1256;114761;-71
2023/12/31 11:34:39;;;;;;;9.50;6.30;;;;;;;5.29;88.87;99718.45;130179;1273;114716;-71
2023/12/31 11:37:41;;;;;;;12.40;7.20;;;;;;;5.30;88.65;99711.48;130292;1257;114804;-69
2023/12/31 11:40:43;;;;;;;18.20;10.90;;;;;;;5.33;88.67;99705.72;130096;1256;115156;-70
2023/12/31 11:43:46;;;;;;;14.40;9.00;;;;;;;5.41;88.88;99698.52;130300;1254;114902;-72
2023/12/31 11:46:48;;;;;;;17.30;9.30;;;;;;;5.48;88.76;99691.17;130028;1259;128029;-71
2023/12/31 11:49:52;;;;;;;16.60;9.80;;;;;;;5.54;88.84;99684.38;130241;1256;114863;-69
2023/12/31 11:52:54;;;;;;;14.70;8.30;;;;;;;5.60;88.70;99676.20;130420;1258;114819;-71
2023/12/31 11:55:58;;;;;;;16.20;9.20;;;;;;;5.62;88.16;99672.56;130248;1259;114725;-71
2023/12/31 11:59:00;;;;;;;19.00;10.50;;;;;;;5.61;88.22;99661.95;130279;1275;114728;-71
2023/12/31 12:02:05;;;;;;;18.80;10.10;;;;;;;5.66;88.34;99659.31;130327;1259;115146;-71
2023/12/31 12:05:07;;;;;;;21.80;11.20;;;;;;;5.69;88.26;99656.70;130224;1260;114750;-69
2023/12/31 12:08:11;;;;;;;16.30;9.50;;;;;;;5.71;88.11;99645.09;130183;1270;114766;-68
2023/12/31 12:11:14;;;;;;;18.70;9.40;;;;;;;5.74;88.09;99633.66;130290;1267;114803;-70
2023/12/31 12:14:16;;;;;;;44.60;21.30;;;;;;;5.78;88.14;99619.52;130056;1256;114827;-69
2023/12/31 12:17:18;;;;;;;31.30;14.90;;;;;;;5.82;88.04;99607.83;130246;1257;115119;-70
2023/12/31 12:20:20;;;;;;;17.50;10.40;;;;;;;5.83;87.72;99601.23;130170;1259;128694;-70
2023/12/31 12:23:24;;;;;;;17.30;11.00;;;;;;;5.84;87.53;99594.98;129939;1277;115403;-71
2023/12/31 12:26:26;;;;;;;19.00;10.40;;;;;;;5.85;87.64;99588.37;130277;1257;115176;-71
2023/12/31 12:29:29;;;;;;;18.70;8.90;;;;;;;5.88;87.50;99580.64;130049;1260;114796;-69
2023/12/31 12:32:32;;;;;;;20.10;9.80;;;;;;;5.90;87.31;99578.39;129999;1259;115081;-71
2023/12/31 12:35:38;;;;;;;17.20;9.90;;;;;;;5.95;87.40;99570.60;130274;1260;115390;-71
2023/12/31 12:38:41;;;;;;;13.80;8.60;;;;;;;5.99;87.26;99558.19;130334;1258;126865;-70
2023/12/31 12:41:48;;;;;;;14.80;9.70;;;;;;;6.02;86.96;99554.38;130237;1260;114751;-69
2023/12/31 12:44:50;;;;;;;19.30;11.50;;;;;;;6.03;87.25;99549.19;130140;1277;115319;-71
2023/12/31 12:47:53;;;;;;;18.70;11.30;;;;;;;6.09;87.46;99550.90;130234;1255;114857;-69
2023/12/31 12:50:55;;;;;;;13.90;7.50;;;;;;;6.12;87.13;99545.44;130234;1259;114711;-70
2023/12/31 12:53:58;;;;;;;18.30;10.20;;;;;;;6.12;86.92;99544.04;130136;1262;114829;-71
2023/12/31 12:57:00;;;;;;;15.10;8.60;;;;;;;6.15;87.13;99541.77;130180;1259;128932;-71
2023/12/31 13:00:04;;;;;;;11.20;7.90;;;;;;;6.17;87.08;99539.89;130200;1259;115205;-71
2023/12/31 13:03:06;;;;;;;16.50;9.30;;;;;;;6.19;87.02;99532.36;130344;1256;114767;-71
2023/12/31 13:06:08;;;;;;;7.60;3.70;;;;;;;6.20;87.03;99536.91;130123;1277;115398;-71
2023/12/31 13:09:11;;;;;;;14.70;8.20;;;;;;;6.20;86.66;99533.58;130121;1259;114767;-71
2023/12/31 13:12:13;;;;;;;15.10;8.60;;;;;;;6.21;86.78;99531.05;129745;1259;114908;-72
2023/12/31 13:15:15;;;;;;;18.10;8.70;;;;;;;6.21;86.78;99533.14;130062;1257;114753;-70
2023/12/31 13:18:17;;;;;;;18.80;9.30;;;;;;;6.22;86.76;99531.88;130244;1259;116904;-70
2023/12/31 13:21:20;;;;;;;14.40;8.50;;;;;;;6.23;86.78;99528.64;130219;1259;114723;-71
2023/12/31 13:24:22;;;;;;;17.00;8.90;;;;;;;6.26;86.71;99524.13;130109;1259;114752;-71
2023/12/31 13:27:25;;;;;;;25.10;13.80;;;;;;;6.27;86.96;99521.55;130310;1259;114788;-66
2023/12/31 13:30:27;;;;;;;28.50;14.00;;;;;;;6.29;86.90;99519.71;130389;1259;114696;-71
2023/12/31 13:33:31;;;;;;;19.80;10.80;;;;;;;6.28;86.60;99515.33;130239;1277;114777;-70
2023/12/31 13:36:33;;;;;;;23.50;13.00;;;;;;;6.27;86.71;99510.05;129906;1262;126615;-70
2023/12/31 13:39:35;;;;;;;30.40;16.20;;;;;;;6.28;86.69;99506.64;130245;1269;114831;-70
2023/12/31 13:42:38;;;;;;;14.60;8.70;;;;;;;6.27;86.67;99497.09;130223;1259;115394;-70